sensor_id;sensor_type;location;lat;lon;timestamp;pressure;altitude;pressure_sealevel;temperature;humidity
78431;BME280;67727;50.236;22.452;2023-05-07T00:00:21;99687.78;;;10.85;76.23
78431;BME280;67727;50.236;22.452;2023-05-07T00:03:07;99686.84;;;10.77;76.07
78431;BME280;67727;50.236;22.452;2023-05-07T00:05:34;99681.69;;;10.72;76.34
78431;BME280;67727;50.236;22.452;2023-05-07T00:08:01;99685.75;;;10.64;76.32
78431;BME280;67727;50.236;22.452;2023-05-07T00:10:28;99688.95;;;10.58;76.09
78431;BME280;67727;50.236;22.452;2023-05-07T00:12:55;99692.61;;;10.53;75.73
78431;BME280;67727;50.236;22.452;2023-05-07T00:15:22;99691.76;;;10.50;75.69
78431;BME280;67727;50.236;22.452;2023-05-07T00:17:50;99688.45;;;10.50;75.53
78431;BME280;67727;50.236;22.452;2023-05-07T00:20:17;99687.45;;;10.49;75.76
78431;BME280;67727;50.236;22.452;2023-05-07T00:22:44;99685.16;;;10.49;75.51
78431;BME280;67727;50.236;22.452;2023-05-07T00:25:11;99686.27;;;10.47;75.29
78431;BME280;67727;50.236;22.452;2023-05-07T00:27:38;99695.48;;;10.43;75.24
78431;BME280;67727;50.236;22.452;2023-05-07T00:30:05;99694.09;;;10.36;75.45
78431;BME280;67727;50.236;22.452;2023-05-07T00:32:32;99692.38;;;10.34;75.56
78431;BME280;67727;50.236;22.452;2023-05-07T00:34:59;99689.19;;;10.31;75.16
78431;BME280;67727;50.236;22.452;2023-05-07T00:37:26;99690.28;;;10.29;75.01
78431;BME280;67727;50.236;22.452;2023-05-07T00:39:53;99695.32;;;10.28;74.98
78431;BME280;67727;50.236;22.452;2023-05-07T00:42:20;99696.45;;;10.28;75.31
78431;BME280;67727;50.236;22.452;2023-05-07T00:44:47;99691.27;;;10.27;74.96
78431;BME280;67727;50.236;22.452;2023-05-07T00:47:14;99692.83;;;10.26;74.98
78431;BME280;67727;50.236;22.452;2023-05-07T00:49:42;99689.92;;;10.20;75.00
78431;BME280;67727;50.236;22.452;2023-05-07T00:52:13;99690.75;;;10.17;75.25
78431;BME280;67727;50.236;22.452;2023-05-07T00:54:40;99688.08;;;10.16;75.31
78431;BME280;67727;50.236;22.452;2023-05-07T00:57:07;99685.40;;;10.18;75.27
78431;BME280;67727;50.236;22.452;2023-05-07T00:59:37;99687.69;;;10.18;74.61
78431;BME280;67727;50.236;22.452;2023-05-07T01:02:04;99692.02;;;10.17;74.60
78431;BME280;67727;50.236;22.452;2023-05-07T01:04:31;99688.23;;;10.16;74.93
78431;BME280;67727;50.236;22.452;2023-05-07T01:06:59;99695.76;;;10.12;74.67
78431;BME280;67727;50.236;22.452;2023-05-07T01:09:28;99700.55;;;10.07;75.01
78431;BME280;67727;50.236;22.452;2023-05-07T01:11:55;99696.77;;;10.01;74.81
78431;BME280;67727;50.236;22.452;2023-05-07T01:14:24;99695.81;;;9.93;74.59
78431;BME280;67727;50.236;22.452;2023-05-07T01:16:52;99692.70;;;9.90;74.96
78431;BME280;67727;50.236;22.452;2023-05-07T01:19:20;99698.63;;;9.90;74.76
78431;BME280;67727;50.236;22.452;2023-05-07T01:21:48;99708.88;;;9.87;74.77
78431;BME280;67727;50.236;22.452;2023-05-07T01:24:15;99712.70;;;9.82;75.07
78431;BME280;67727;50.236;22.452;2023-05-07T01:26:43;99712.91;;;9.79;75.17
78431;BME280;67727;50.236;22.452;2023-05-07T01:29:11;99712.78;;;9.75;75.19
78431;BME280;67727;50.236;22.452;2023-05-07T01:31:39;99717.70;;;9.72;75.88
78431;BME280;67727;50.236;22.452;2023-05-07T01:34:08;99719.45;;;9.72;76.11
78431;BME280;67727;50.236;22.452;2023-05-07T01:36:38;99724.77;;;9.74;75.98
78431;BME280;67727;50.236;22.452;2023-05-07T01:39:06;99720.33;;;9.76;75.68
78431;BME280;67727;50.236;22.452;2023-05-07T01:41:35;99724.20;;;9.77;75.52
78431;BME280;67727;50.236;22.452;2023-05-07T01:44:03;99725.76;;;9.74;75.75
78431;BME280;67727;50.236;22.452;2023-05-07T01:46:31;99728.45;;;9.71;75.48
78431;BME280;67727;50.236;22.452;2023-05-07T01:48:59;99726.05;;;9.67;75.93
78431;BME280;67727;50.236;22.452;2023-05-07T01:51:26;99730.06;;;9.64;75.54
78431;BME280;67727;50.236;22.452;2023-05-07T01:53:53;99733.38;;;9.62;75.55
78431;BME280;67727;50.236;22.452;2023-05-07T01:56:20;99734.02;;;9.58;75.15
78431;BME280;67727;50.236;22.452;2023-05-07T01:58:47;99734.81;;;9.53;75.62
78431;BME280;67727;50.236;22.452;2023-05-07T02:01:14;99728.73;;;9.49;75.82
78431;BME280;67727;50.236;22.452;2023-05-07T02:03:41;99729.54;;;9.47;75.67
78431;BME280;67727;50.236;22.452;2023-05-07T02:06:08;99724.69;;;9.44;75.76
78431;BME280;67727;50.236;22.452;2023-05-07T02:08:35;99720.13;;;9.39;75.87
78431;BME280;67727;50.236;22.452;2023-05-07T02:11:02;99718.22;;;9.32;75.50
78431;BME280;67727;50.236;22.452;2023-05-07T02:13:31;99714.92;;;9.24;75.96
78431;BME280;67727;50.236;22.452;2023-05-07T02:15:58;99719.10;;;9.20;75.88
78431;BME280;67727;50.236;22.452;2023-05-07T02:18:25;99720.99;;;9.19;75.69
78431;BME280;67727;50.236;22.452;2023-05-07T02:20:52;99721.69;;;9.18;76.05
78431;BME280;67727;50.236;22.452;2023-05-07T02:23:19;99722.63;;;9.21;76.02
78431;BME280;67727;50.236;22.452;2023-05-07T02:25:45;99720.81;;;9.25;75.93
78431;BME280;67727;50.236;22.452;2023-05-07T02:28:12;99716.66;;;9.29;76.18
78431;BME280;67727;50.236;22.452;2023-05-07T02:30:39;99718.92;;;9.33;75.97
78431;BME280;67727;50.236;22.452;2023-05-07T02:33:06;99716.23;;;9.35;76.20
78431;BME280;67727;50.236;22.452;2023-05-07T02:35:34;99712.79;;;9.35;76.19
78431;BME280;67727;50.236;22.452;2023-05-07T02:38:01;99716.03;;;9.31;75.59
78431;BME280;67727;50.236;22.452;2023-05-07T02:40:28;99717.78;;;9.23;75.92
78431;BME280;67727;50.236;22.452;2023-05-07T02:42:55;99714.47;;;9.17;76.16
78431;BME280;67727;50.236;22.452;2023-05-07T02:45:22;99713.29;;;9.13;76.30
78431;BME280;67727;50.236;22.452;2023-05-07T02:47:49;99719.42;;;9.10;75.95
78431;BME280;67727;50.236;22.452;2023-05-07T02:50:17;99720.83;;;9.06;76.43
78431;BME280;67727;50.236;22.452;2023-05-07T02:52:43;99723.23;;;9.01;76.29
78431;BME280;67727;50.236;22.452;2023-05-07T02:55:10;99723.64;;;8.97;76.25
78431;BME280;67727;50.236;22.452;2023-05-07T02:57:37;99726.55;;;8.93;76.45
78431;BME280;67727;50.236;22.452;2023-05-07T03:00:17;99726.27;;;8.87;76.56
78431;BME280;67727;50.236;22.452;2023-05-07T03:02:45;99730.73;;;8.82;76.32
78431;BME280;67727;50.236;22.452;2023-05-07T03:05:12;99729.65;;;8.79;76.35
78431;BME280;67727;50.236;22.452;2023-05-07T03:07:39;99730.58;;;8.79;76.60
78431;BME280;67727;50.236;22.452;2023-05-07T03:10:07;99737.58;;;8.79;76.57
78431;BME280;67727;50.236;22.452;2023-05-07T03:12:34;99743.79;;;8.80;76.72
78431;BME280;67727;50.236;22.452;2023-05-07T03:15:01;99742.92;;;8.80;76.48
78431;BME280;67727;50.236;22.452;2023-05-07T03:17:27;99746.66;;;8.80;76.01
78431;BME280;67727;50.236;22.452;2023-05-07T03:19:54;99749.30;;;8.78;75.91
78431;BME280;67727;50.236;22.452;2023-05-07T03:22:21;99753.13;;;8.74;75.86
78431;BME280;67727;50.236;22.452;2023-05-07T03:24:48;99752.91;;;8.71;76.25
78431;BME280;67727;50.236;22.452;2023-05-07T03:27:14;99753.88;;;8.68;75.88
78431;BME280;67727;50.236;22.452;2023-05-07T03:29:41;99757.05;;;8.67;75.93
78431;BME280;67727;50.236;22.452;2023-05-07T03:32:08;99762.60;;;8.64;76.00
78431;BME280;67727;50.236;22.452;2023-05-07T03:34:35;99765.48;;;8.62;75.87
78431;BME280;67727;50.236;22.452;2023-05-07T03:37:01;99770.34;;;8.63;76.12
78431;BME280;67727;50.236;22.452;2023-05-07T03:39:28;99773.13;;;8.65;75.76
78431;BME280;67727;50.236;22.452;2023-05-07T03:41:55;99776.56;;;8.69;75.97
78431;BME280;67727;50.236;22.452;2023-05-07T03:44:22;99776.69;;;8.69;76.34
78431;BME280;67727;50.236;22.452;2023-05-07T03:46:49;99781.07;;;8.73;76.36
78431;BME280;67727;50.236;22.452;2023-05-07T03:49:15;99787.77;;;8.76;76.31
78431;BME280;67727;50.236;22.452;2023-05-07T03:51:42;99783.14;;;8.78;76.22
78431;BME280;67727;50.236;22.452;2023-05-07T03:54:09;99782.40;;;8.74;75.72
78431;BME280;67727;50.236;22.452;2023-05-07T03:56:36;99787.04;;;8.70;75.82
78431;BME280;67727;50.236;22.452;2023-05-07T03:59:03;99789.88;;;8.68;75.83
78431;BME280;67727;50.236;22.452;2023-05-07T04:01:30;99788.73;;;8.67;75.82
78431;BME280;67727;50.236;22.452;2023-05-07T04:03:56;99791.98;;;8.69;75.70
78431;BME280;67727;50.236;22.452;2023-05-07T04:06:23;99793.91;;;8.71;75.98
78431;BME280;67727;50.236;22.452;2023-05-07T04:08:50;99795.24;;;8.72;75.71
78431;BME280;67727;50.236;22.452;2023-05-07T04:11:17;99792.20;;;8.69;75.69
78431;BME280;67727;50.236;22.452;2023-05-07T04:13:44;99798.80;;;8.65;75.68
78431;BME280;67727;50.236;22.452;2023-05-07T04:16:11;99799.84;;;8.65;76.13
78431;BME280;67727;50.236;22.452;2023-05-07T04:18:38;99802.92;;;8.68;75.87
78431;BME280;67727;50.236;22.452;2023-05-07T04:21:05;99804.46;;;8.73;76.29
78431;BME280;67727;50.236;22.452;2023-05-07T04:23:32;99808.10;;;8.79;76.17
78431;BME280;67727;50.236;22.452;2023-05-07T04:25:59;99809.33;;;8.79;75.86
78431;BME280;67727;50.236;22.452;2023-05-07T04:28:27;99815.43;;;8.78;75.75
78431;BME280;67727;50.236;22.452;2023-05-07T04:30:54;99819.50;;;8.79;76.00
78431;BME280;67727;50.236;22.452;2023-05-07T04:33:20;99823.70;;;8.79;75.70
78431;BME280;67727;50.236;22.452;2023-05-07T04:35:47;99826.92;;;8.77;75.65
78431;BME280;67727;50.236;22.452;2023-05-07T04:38:14;99826.09;;;8.77;75.49
78431;BME280;67727;50.236;22.452;2023-05-07T04:40:41;99830.45;;;8.77;75.98
78431;BME280;67727;50.236;22.452;2023-05-07T04:43:08;99829.50;;;8.78;75.83
78431;BME280;67727;50.236;22.452;2023-05-07T04:45:36;99837.64;;;8.81;75.95
78431;BME280;67727;50.236;22.452;2023-05-07T04:48:03;99835.52;;;8.82;75.55
78431;BME280;67727;50.236;22.452;2023-05-07T04:50:29;99840.91;;;8.80;75.35
78431;BME280;67727;50.236;22.452;2023-05-07T04:52:56;99842.38;;;8.75;75.25
78431;BME280;67727;50.236;22.452;2023-05-07T04:55:23;99846.35;;;8.70;75.12
78431;BME280;67727;50.236;22.452;2023-05-07T04:57:51;99844.52;;;8.68;75.47
78431;BME280;67727;50.236;22.452;2023-05-07T05:00:18;99846.69;;;8.65;75.49
78431;BME280;67727;50.236;22.452;2023-05-07T05:02:46;99850.83;;;8.64;75.52
78431;BME280;67727;50.236;22.452;2023-05-07T05:05:12;99851.63;;;8.65;75.84
78431;BME280;67727;50.236;22.452;2023-05-07T05:07:39;99851.15;;;8.68;75.35
78431;BME280;67727;50.236;22.452;2023-05-07T05:10:06;99852.60;;;8.71;75.58
78431;BME280;67727;50.236;22.452;2023-05-07T05:12:33;99851.80;;;8.72;75.20
78431;BME280;67727;50.236;22.452;2023-05-07T05:15:00;99854.44;;;8.75;75.46
78431;BME280;67727;50.236;22.452;2023-05-07T05:17:27;99853.60;;;8.80;75.56
78431;BME280;67727;50.236;22.452;2023-05-07T05:19:53;99855.95;;;8.86;75.59
78431;BME280;67727;50.236;22.452;2023-05-07T05:22:20;99853.95;;;8.91;75.26
78431;BME280;67727;50.236;22.452;2023-05-07T05:24:47;99859.58;;;8.95;74.75
78431;BME280;67727;50.236;22.452;2023-05-07T05:27:14;99862.56;;;8.98;74.53
78431;BME280;67727;50.236;22.452;2023-05-07T05:29:41;99862.90;;;9.02;74.48
78431;BME280;67727;50.236;22.452;2023-05-07T05:32:08;99865.06;;;9.08;74.10
78431;BME280;67727;50.236;22.452;2023-05-07T05:34:34;99864.36;;;9.13;74.02
78431;BME280;67727;50.236;22.452;2023-05-07T05:37:01;99866.48;;;9.16;73.89
78431;BME280;67727;50.236;22.452;2023-05-07T05:39:28;99866.80;;;9.18;73.81
78431;BME280;67727;50.236;22.452;2023-05-07T05:41:55;99873.60;;;9.17;73.69
78431;BME280;67727;50.236;22.452;2023-05-07T05:44:22;99875.19;;;9.14;73.55
78431;BME280;67727;50.236;22.452;2023-05-07T05:46:49;99877.13;;;9.16;73.65
78431;BME280;67727;50.236;22.452;2023-05-07T05:49:21;99881.50;;;9.19;73.74
78431;BME280;67727;50.236;22.452;2023-05-07T05:51:48;99884.86;;;9.26;73.04
78431;BME280;67727;50.236;22.452;2023-05-07T05:54:15;99883.10;;;9.28;72.68
78431;BME280;67727;50.236;22.452;2023-05-07T05:56:42;99888.34;;;9.26;72.55
78431;BME280;67727;50.236;22.452;2023-05-07T05:59:09;99889.08;;;9.23;72.40
78431;BME280;67727;50.236;22.452;2023-05-07T06:01:36;99889.05;;;9.20;72.50
78431;BME280;67727;50.236;22.452;2023-05-07T06:04:03;99892.62;;;9.19;72.21
78431;BME280;67727;50.236;22.452;2023-05-07T06:06:30;99892.15;;;9.20;72.56
78431;BME280;67727;50.236;22.452;2023-05-07T06:08:57;99898.38;;;9.25;72.80
78431;BME280;67727;50.236;22.452;2023-05-07T06:11:24;99899.30;;;9.29;71.88
78431;BME280;67727;50.236;22.452;2023-05-07T06:13:52;99893.03;;;9.33;72.05
78431;BME280;67727;50.236;22.452;2023-05-07T06:16:18;99896.68;;;9.42;72.10
78431;BME280;67727;50.236;22.452;2023-05-07T06:18:45;99900.63;;;9.45;71.66
78431;BME280;67727;50.236;22.452;2023-05-07T06:21:13;99897.67;;;9.43;71.58
78431;BME280;67727;50.236;22.452;2023-05-07T06:23:41;99903.95;;;9.38;71.51
78431;BME280;67727;50.236;22.452;2023-05-07T06:26:07;99902.75;;;9.33;71.35
78431;BME280;67727;50.236;22.452;2023-05-07T06:28:34;99902.05;;;9.25;71.20
78431;BME280;67727;50.236;22.452;2023-05-07T06:31:16;99910.10;;;9.22;71.60
78431;BME280;67727;50.236;22.452;2023-05-07T06:33:44;99913.02;;;9.20;71.66
78431;BME280;67727;50.236;22.452;2023-05-07T06:36:11;99913.77;;;9.23;71.58
78431;BME280;67727;50.236;22.452;2023-05-07T06:38:38;99921.13;;;9.26;72.02
78431;BME280;67727;50.236;22.452;2023-05-07T06:41:08;99925.20;;;9.30;71.62
78431;BME280;67727;50.236;22.452;2023-05-07T06:43:35;99920.60;;;9.26;71.40
78431;BME280;67727;50.236;22.452;2023-05-07T06:46:02;99929.80;;;9.24;71.64
78431;BME280;67727;50.236;22.452;2023-05-07T06:48:29;99934.59;;;9.26;71.63
78431;BME280;67727;50.236;22.452;2023-05-07T06:50:55;99935.10;;;9.23;71.29
78431;BME280;67727;50.236;22.452;2023-05-07T06:53:25;99936.89;;;9.19;71.46
78431;BME280;67727;50.236;22.452;2023-05-07T06:55:52;99939.73;;;9.17;71.41
78431;BME280;67727;50.236;22.452;2023-05-07T06:58:19;99945.69;;;9.16;71.48
78431;BME280;67727;50.236;22.452;2023-05-07T07:00:46;99946.62;;;9.14;71.13
78431;BME280;67727;50.236;22.452;2023-05-07T07:03:12;99951.32;;;9.09;71.38
78431;BME280;67727;50.236;22.452;2023-05-07T07:05:42;99954.80;;;9.07;71.45
78431;BME280;67727;50.236;22.452;2023-05-07T07:08:09;99956.94;;;9.05;71.53
78431;BME280;67727;50.236;22.452;2023-05-07T07:10:36;99960.33;;;9.04;71.68
78431;BME280;67727;50.236;22.452;2023-05-07T07:13:03;99966.58;;;9.02;71.30
78431;BME280;67727;50.236;22.452;2023-05-07T07:15:30;99969.88;;;9.02;71.07
78431;BME280;67727;50.236;22.452;2023-05-07T07:17:57;99969.41;;;9.00;70.78
78431;BME280;67727;50.236;22.452;2023-05-07T07:20:24;99977.31;;;8.96;71.32
78431;BME280;67727;50.236;22.452;2023-05-07T07:22:51;99982.54;;;8.95;71.57
78431;BME280;67727;50.236;22.452;2023-05-07T07:25:18;99985.11;;;8.93;71.23
78431;BME280;67727;50.236;22.452;2023-05-07T07:27:45;99986.83;;;8.92;71.73
78431;BME280;67727;50.236;22.452;2023-05-07T07:30:11;99987.63;;;8.89;71.51
78431;BME280;67727;50.236;22.452;2023-05-07T07:32:38;99987.98;;;8.91;71.49
78431;BME280;67727;50.236;22.452;2023-05-07T07:35:06;99992.33;;;8.93;71.42
78431;BME280;67727;50.236;22.452;2023-05-07T07:37:32;99995.04;;;8.95;71.43
78431;BME280;67727;50.236;22.452;2023-05-07T07:39:59;99997.04;;;9.00;71.79
78431;BME280;67727;50.236;22.452;2023-05-07T07:42:26;99998.27;;;9.04;71.29
78431;BME280;67727;50.236;22.452;2023-05-07T07:44:53;99998.55;;;9.05;71.56
78431;BME280;67727;50.236;22.452;2023-05-07T07:47:20;100000.84;;;9.03;71.16
78431;BME280;67727;50.236;22.452;2023-05-07T07:49:47;100008.30;;;9.00;71.07
78431;BME280;67727;50.236;22.452;2023-05-07T07:52:14;100011.82;;;8.93;71.04
78431;BME280;67727;50.236;22.452;2023-05-07T07:54:41;100011.98;;;8.90;70.98
78431;BME280;67727;50.236;22.452;2023-05-07T07:57:08;100016.18;;;8.87;71.39
78431;BME280;67727;50.236;22.452;2023-05-07T07:59:34;100018.52;;;8.87;71.00
78431;BME280;67727;50.236;22.452;2023-05-07T08:02:01;100023.81;;;8.87;71.19
78431;BME280;67727;50.236;22.452;2023-05-07T08:04:28;100027.70;;;8.85;70.83
78431;BME280;67727;50.236;22.452;2023-05-07T08:06:55;100030.57;;;8.84;70.88
78431;BME280;67727;50.236;22.452;2023-05-07T08:09:22;100032.34;;;8.84;71.13
78431;BME280;67727;50.236;22.452;2023-05-07T08:11:49;100031.58;;;8.80;70.76
78431;BME280;67727;50.236;22.452;2023-05-07T08:14:16;100034.90;;;8.78;70.94
78431;BME280;67727;50.236;22.452;2023-05-07T08:16:43;100035.02;;;8.77;71.15
78431;BME280;67727;50.236;22.452;2023-05-07T08:19:09;100035.52;;;8.79;71.11
78431;BME280;67727;50.236;22.452;2023-05-07T08:21:40;100037.62;;;8.88;71.39
78431;BME280;67727;50.236;22.452;2023-05-07T08:24:07;100035.39;;;8.94;71.18
78431;BME280;67727;50.236;22.452;2023-05-07T08:26:34;100046.10;;;8.96;71.62
78431;BME280;67727;50.236;22.452;2023-05-07T08:29:02;100054.58;;;8.96;70.70
78431;BME280;67727;50.236;22.452;2023-05-07T08:31:29;100056.54;;;8.89;70.75
78431;BME280;67727;50.236;22.452;2023-05-07T08:33:57;100055.11;;;8.84;70.59
78431;BME280;67727;50.236;22.452;2023-05-07T08:36:25;100055.33;;;8.82;70.88
78431;BME280;67727;50.236;22.452;2023-05-07T08:38:52;100059.98;;;8.79;70.64
78431;BME280;67727;50.236;22.452;2023-05-07T08:41:19;100065.17;;;8.79;71.12
78431;BME280;67727;50.236;22.452;2023-05-07T08:43:50;100066.86;;;8.78;70.92
78431;BME280;67727;50.236;22.452;2023-05-07T08:46:21;100071.02;;;8.78;71.32
78431;BME280;67727;50.236;22.452;2023-05-07T08:48:49;100072.85;;;8.83;70.91
78431;BME280;67727;50.236;22.452;2023-05-07T08:51:19;100079.66;;;8.83;70.87
78431;BME280;67727;50.236;22.452;2023-05-07T08:53:47;100083.41;;;8.83;71.02
78431;BME280;67727;50.236;22.452;2023-05-07T08:56:15;100084.45;;;8.81;70.94
78431;BME280;67727;50.236;22.452;2023-05-07T08:58:42;100086.98;;;8.79;70.90
78431;BME280;67727;50.236;22.452;2023-05-07T09:01:18;100088.42;;;8.75;70.86
78431;BME280;67727;50.236;22.452;2023-05-07T09:03:46;100093.54;;;8.70;71.11
78431;BME280;67727;50.236;22.452;2023-05-07T09:06:13;100096.98;;;8.71;71.38
78431;BME280;67727;50.236;22.452;2023-05-07T09:08:40;100102.73;;;8.76;71.41
78431;BME280;67727;50.236;22.452;2023-05-07T09:11:07;100101.05;;;8.81;70.93
78431;BME280;67727;50.236;22.452;2023-05-07T09:13:34;100107.01;;;8.80;71.03
78431;BME280;67727;50.236;22.452;2023-05-07T09:16:11;100108.80;;;8.79;70.84
78431;BME280;67727;50.236;22.452;2023-05-07T09:18:50;100105.84;;;8.81;71.03
78431;BME280;67727;50.236;22.452;2023-05-07T09:21:19;100104.97;;;8.84;70.79
78431;BME280;67727;50.236;22.452;2023-05-07T09:23:50;100108.44;;;8.84;70.59
78431;BME280;67727;50.236;22.452;2023-05-07T09:26:17;100115.99;;;8.85;70.97
78431;BME280;67727;50.236;22.452;2023-05-07T09:28:44;100118.88;;;8.86;71.31
78431;BME280;67727;50.236;22.452;2023-05-07T09:31:12;100123.59;;;8.85;71.04
78431;BME280;67727;50.236;22.452;2023-05-07T09:33:40;100125.58;;;8.86;71.28
78431;BME280;67727;50.236;22.452;2023-05-07T09:36:07;100128.98;;;8.85;70.95
78431;BME280;67727;50.236;22.452;2023-05-07T09:38:36;100136.91;;;8.85;71.13
78431;BME280;67727;50.236;22.452;2023-05-07T09:43:35;100142.93;;;8.87;71.14
78431;BME280;67727;50.236;22.452;2023-05-07T09:46:13;100141.74;;;8.84;70.75
78431;BME280;67727;50.236;22.452;2023-05-07T09:48:43;100145.23;;;8.81;71.23
78431;BME280;67727;50.236;22.452;2023-05-07T09:51:33;100149.00;;;8.81;70.88
78431;BME280;67727;50.236;22.452;2023-05-07T09:54:02;100157.67;;;8.81;70.64
78431;BME280;67727;50.236;22.452;2023-05-07T09:56:31;100158.96;;;8.75;70.63
78431;BME280;67727;50.236;22.452;2023-05-07T09:59:02;100164.27;;;8.74;70.88
78431;BME280;67727;50.236;22.452;2023-05-07T10:01:31;100167.31;;;8.74;70.90
78431;BME280;67727;50.236;22.452;2023-05-07T10:03:58;100163.46;;;8.72;71.02
78431;BME280;67727;50.236;22.452;2023-05-07T10:06:26;100167.70;;;8.72;71.37
78431;BME280;67727;50.236;22.452;2023-05-07T10:08:53;100169.13;;;8.70;71.29
78431;BME280;67727;50.236;22.452;2023-05-07T10:11:21;100173.28;;;8.70;71.55
78431;BME280;67727;50.236;22.452;2023-05-07T10:13:49;100175.06;;;8.69;71.17
78431;BME280;67727;50.236;22.452;2023-05-07T10:16:18;100179.64;;;8.63;71.49
78431;BME280;67727;50.236;22.452;2023-05-07T10:18:46;100182.42;;;8.57;71.56
78431;BME280;67727;50.236;22.452;2023-05-07T10:21:17;100188.42;;;8.59;72.00
78431;BME280;67727;50.236;22.452;2023-05-07T10:23:48;100189.48;;;8.59;71.35
78431;BME280;67727;50.236;22.452;2023-05-07T10:26:18;100197.52;;;8.57;71.56
78431;BME280;67727;50.236;22.452;2023-05-07T10:28:50;100197.73;;;8.55;71.75
78431;BME280;67727;50.236;22.452;2023-05-07T10:34:18;100200.63;;;8.53;72.21
78431;BME280;67727;50.236;22.452;2023-05-07T10:36:48;100203.23;;;8.53;71.85
78431;BME280;67727;50.236;22.452;2023-05-07T10:39:17;100206.49;;;8.50;71.70
78431;BME280;67727;50.236;22.452;2023-05-07T10:41:44;100209.50;;;8.49;72.02
78431;BME280;67727;50.236;22.452;2023-05-07T10:44:10;100209.91;;;8.51;71.88
78431;BME280;67727;50.236;22.452;2023-05-07T10:46:38;100208.02;;;8.56;71.99
78431;BME280;67727;50.236;22.452;2023-05-07T10:51:35;100208.06;;;8.68;71.80
78431;BME280;67727;50.236;22.452;2023-05-07T10:56:41;100210.46;;;8.64;71.51
78431;BME280;67727;50.236;22.452;2023-05-07T11:01:55;100208.84;;;8.64;71.50
78431;BME280;67727;50.236;22.452;2023-05-07T11:04:24;100209.84;;;8.68;71.54
78431;BME280;67727;50.236;22.452;2023-05-07T11:07:30;100210.42;;;8.71;71.50
78431;BME280;67727;50.236;22.452;2023-05-07T11:09:59;100219.17;;;8.70;71.30
78431;BME280;67727;50.236;22.452;2023-05-07T11:15:10;100234.35;;;8.57;71.43
78431;BME280;67727;50.236;22.452;2023-05-07T11:17:58;100241.80;;;8.51;71.44
78431;BME280;67727;50.236;22.452;2023-05-07T11:20:44;100240.66;;;8.47;71.75
78431;BME280;67727;50.236;22.452;2023-05-07T11:26:02;100244.83;;;8.47;71.48
78431;BME280;67727;50.236;22.452;2023-05-07T11:28:31;100244.05;;;8.44;72.10
78431;BME280;67727;50.236;22.452;2023-05-07T11:30:58;100248.88;;;8.40;72.44
78431;BME280;67727;50.236;22.452;2023-05-07T11:33:25;100254.08;;;8.37;72.32
78431;BME280;67727;50.236;22.452;2023-05-07T11:35:53;100255.16;;;8.33;72.43
78431;BME280;67727;50.236;22.452;2023-05-07T11:38:20;100255.90;;;8.25;72.51
78431;BME280;67727;50.236;22.452;2023-05-07T11:43:18;100264.87;;;8.22;72.81
78431;BME280;67727;50.236;22.452;2023-05-07T11:45:48;100267.67;;;8.22;72.53
78431;BME280;67727;50.236;22.452;2023-05-07T11:48:16;100274.44;;;8.25;72.55
78431;BME280;67727;50.236;22.452;2023-05-07T11:50:59;100280.30;;;8.26;72.52
78431;BME280;67727;50.236;22.452;2023-05-07T11:53:28;100281.59;;;8.27;72.65
78431;BME280;67727;50.236;22.452;2023-05-07T11:56:09;100278.92;;;8.24;72.59
78431;BME280;67727;50.236;22.452;2023-05-07T11:58:36;100281.56;;;8.24;72.15
78431;BME280;67727;50.236;22.452;2023-05-07T12:01:03;100284.20;;;8.24;72.42
78431;BME280;67727;50.236;22.452;2023-05-07T12:03:31;100286.91;;;8.18;72.74
78431;BME280;67727;50.236;22.452;2023-05-07T12:05:59;100289.15;;;8.14;72.98
78431;BME280;67727;50.236;22.452;2023-05-07T12:08:26;100288.81;;;8.14;72.80
78431;BME280;67727;50.236;22.452;2023-05-07T12:10:53;100289.89;;;8.16;72.64
78431;BME280;67727;50.236;22.452;2023-05-07T12:13:22;100293.16;;;8.19;72.78
78431;BME280;67727;50.236;22.452;2023-05-07T12:15:53;100297.98;;;8.18;72.54
78431;BME280;67727;50.236;22.452;2023-05-07T12:18:22;100300.39;;;8.13;72.37
78431;BME280;67727;50.236;22.452;2023-05-07T12:20:49;100297.69;;;8.06;72.62
78431;BME280;67727;50.236;22.452;2023-05-07T12:23:17;100300.56;;;8.04;72.75
78431;BME280;67727;50.236;22.452;2023-05-07T12:25:44;100302.64;;;8.06;72.91
78431;BME280;67727;50.236;22.452;2023-05-07T12:28:15;100302.42;;;8.10;72.96
78431;BME280;67727;50.236;22.452;2023-05-07T12:30:44;100301.00;;;8.07;72.98
78431;BME280;67727;50.236;22.452;2023-05-07T12:33:12;100304.08;;;8.04;73.30
78431;BME280;67727;50.236;22.452;2023-05-07T12:35:40;100305.61;;;8.01;73.16
78431;BME280;67727;50.236;22.452;2023-05-07T12:38:13;100311.04;;;7.97;72.83
78431;BME280;67727;50.236;22.452;2023-05-07T12:40:48;100312.42;;;7.90;72.94
78431;BME280;67727;50.236;22.452;2023-05-07T12:43:23;100317.23;;;7.83;73.19
78431;BME280;67727;50.236;22.452;2023-05-07T12:45:51;100316.92;;;7.81;73.28
78431;BME280;67727;50.236;22.452;2023-05-07T12:48:20;100319.84;;;7.82;73.31
78431;BME280;67727;50.236;22.452;2023-05-07T12:50:51;100318.59;;;7.82;73.09
78431;BME280;67727;50.236;22.452;2023-05-07T12:53:21;100326.35;;;7.84;73.05
78431;BME280;67727;50.236;22.452;2023-05-07T12:55:50;100325.92;;;7.81;73.02
78431;BME280;67727;50.236;22.452;2023-05-07T12:58:28;100327.68;;;7.79;73.27
78431;BME280;67727;50.236;22.452;2023-05-07T13:00:57;100331.07;;;7.79;73.44
78431;BME280;67727;50.236;22.452;2023-05-07T13:03:28;100328.61;;;7.71;73.47
78431;BME280;67727;50.236;22.452;2023-05-07T13:05:57;100329.91;;;7.63;73.79
78431;BME280;67727;50.236;22.452;2023-05-07T13:08:29;100333.08;;;7.57;74.14
78431;BME280;67727;50.236;22.452;2023-05-07T13:10:58;100330.88;;;7.58;74.28
78431;BME280;67727;50.236;22.452;2023-05-07T13:13:26;100336.10;;;7.64;74.11
78431;BME280;67727;50.236;22.452;2023-05-07T13:15:53;100338.00;;;7.72;73.69
78431;BME280;67727;50.236;22.452;2023-05-07T13:18:19;100345.20;;;7.78;73.81
78431;BME280;67727;50.236;22.452;2023-05-07T13:20:46;100352.04;;;7.80;73.64